Data for 12/22/2010

Time Sea-Level Adjusted Pressure Absolute Pressure Temperature Relative Humidity Dew Point   
(mb) (inHg) (mb) (inHg) (C) (F) (%) (C) (F)
00:05 1018 30.06 847 25.01 -9.1 15.6 74 -12.9 8.7
00:10 1018 30.06 847 25.01 -9.4 15.1 76 -13 8.7
00:15 1018 30.06 847 25.01 -9.7 14.5 76 -13.2 8.3
00:20 1018 30.06 847 25.01 -9.5 14.9 75 -13.2 8.2
00:25 1018 30.06 847 25.01 -9.3 15.2 76 -12.7 9.1
00:30 1018 30.06 847 25.01 -9.1 15.7 75 -12.7 9.1
00:35 1018 30.06 847 25.01 -8.7 16.4 72 -12.8 8.9
00:40 1018 30.06 847 25.01 -8.7 16.3 71 -13.1 8.4
00:45 1018 30.06 847 25.01 -9.1 15.6 73 -13.2 8.3
00:50 1018 30.06 847 25.01 -9.5 15 74 -13.3 8.1
00:55 1018 30.06 847 25.01 -9.2 15.5 74 -13 8.6
01:00 1018 30.06 847 25.01 -9 15.9 73 -12.9 8.8
01:05 1017 30.03 847 25.01 -8.5 16.6 71 -13 8.7
01:10 1017 30.03 847 25.01 -8.8 16.2 72 -13 8.6
01:15 1017 30.03 847 25.01 -9.1 15.5 73 -13.1 8.5
01:20 1017 30.03 847 25.01 -9.4 15 74 -13.2 8.3
01:25 1017 30.03 847 25.01 -9.6 14.8 75 -13.2 8.2
01:30 1017 30.03 846 24.98 -9.6 14.7 75 -13.3 8.1
01:35 1017 30.03 846 24.98 -9.7 14.6 75 -13.3 8.1
01:40 1017 30.03 846 24.98 -9.8 14.4 75 -13.3 8
01:45 1017 30.03 846 24.98 -10 14.1 77 -13.3 8
01:50 1017 30.03 846 24.98 -9.9 14.1 76 -13.3 8
01:55 1017 30.03 846 24.98 -10.1 13.9 77 -13.3 8.1
02:00 1017 30.03 846 24.98 -10 14 76 -13.4 7.9
02:05 1017 30.03 846 24.98 -10.1 13.8 78 -13.3 8
02:10 1017 30.03 846 24.98 -10.1 13.8 78 -13.3 8
02:15 1017 30.03 846 24.98 -10 14.1 76 -13.4 7.9
02:20 1017 30.03 847 25.01 -10 14.1 76 -13.4 7.8
02:25 1017 30.03 846 24.98 -10.3 13.4 78 -13.5 7.7
02:30 1017 30.03 847 25.01 -10.8 12.7 81 -13.4 7.9
02:35 1017 30.03 847 25.01 -11.1 12 83 -13.5 7.7
02:40 1017 30.03 847 25.01 -11 12.2 82 -13.5 7.8
02:45 1017 30.03 847 25.01 -10.9 12.3 82 -13.4 7.8
02:50 1017 30.03 847 25.01 -10.9 12.4 82 -13.4 7.8
02:55 1017 30.03 847 25.01 -10.8 12.6 81 -13.5 7.8
03:00 1018 30.06 847 25.01 -10.7 12.8 80 -13.4 7.9
03:05 1017 30.03 847 25.01 -10.7 12.7 81 -13.4 7.9
03:10 1018 30.06 847 25.01 -10.8 12.6 81 -13.4 7.9
03:15 1018 30.06 847 25.01 -10.8 12.6 82 -13.3 8.1
03:20 1018 30.06 847 25.01 -10.5 13 80 -13.3 8
03:25 1018 30.06 847 25.01 -10.5 13 81 -13.2 8.3
03:30 1018 30.06 847 25.01 -10.5 13 80 -13.3 8
03:35 1018 30.06 847 25.01 -10.9 12.3 82 -13.4 7.9
03:40 1018 30.06 847 25.01 -10.8 12.5 81 -13.4 7.8
03:45 1018 30.06 847 25.01 -11.1 12.1 82 -13.6 7.5
03:50 1018 30.06 847 25.01 -11 12.2 83 -13.3 8
03:55 1017 30.03 847 25.01 -10.6 12.9 81 -13.3 8
04:00 1018 30.06 847 25.01 -10.8 12.6 82 -13.3 8.1
04:05 1018 30.06 847 25.01 -10.8 12.5 81 -13.5 7.7
04:10 1017 30.03 847 25.01 -11 12.1 80 -13.8 7.2
04:15 1017 30.03 847 25.01 -11.3 11.7 83 -13.6 7.5
04:20 1017 30.03 847 25.01 -11 12.1 82 -13.5 7.7
04:25 1017 30.03 847 25.01 -10.7 12.7 82 -13.3 8.1
04:30 1017 30.03 847 25.01 -10.5 13.2 79 -13.4 7.8
04:35 1017 30.03 847 25.01 -10.6 13 80 -13.4 8
04:40 1017 30.03 847 25.01 -10.8 12.6 81 -13.5 7.8
04:45 1017 30.03 847 25.01 -10.4 13.3 78 -13.5 7.8
04:50 1017 30.03 847 25.01 -10.2 13.7 80 -13.1 8.5
04:55 1017 30.03 847 25.01 -10.1 13.7 77 -13.5 7.8
05:00 1017 30.03 847 25.01 -10.7 12.8 80 -13.5 7.7
05:05 1017 30.03 846 24.98 -10.8 12.6 81 -13.4 7.8
05:10 1017 30.03 847 25.01 -10.5 13.1 79 -13.4 7.8
05:15 1017 30.03 846 24.98 -10.2 13.7 80 -13.1 8.5
05:20 1017 30.03 846 24.98 -9.9 14.2 78 -13 8.6
05:25 1017 30.03 846 24.98 -9.7 14.5 77 -13 8.6
05:30 1017 30.03 846 24.98 -10 14.1 79 -12.9 8.8
05:35 1017 30.03 846 24.98 -9.4 15 76 -12.9 8.9
05:40 1017 30.03 846 24.98 -9.2 15.5 76 -12.7 9.1
05:45 1017 30.03 846 24.98 -9.1 15.5 76 -12.7 9.2
05:50 1017 30.03 846 24.98 -9.2 15.5 76 -12.7 9.1
05:55 1017 30.03 846 24.98 -9.4 15.1 77 -12.8 9
06:00 1017 30.03 846 24.98 -9.4 15 77 -12.7 9.1
06:05 1017 30.03 846 24.98 -9.4 15.2 77 -12.7 9.1
06:10 1017 30.03 846 24.98 -9.5 14.9 78 -12.7 9.1
06:15 1017 30.03 846 24.98 -9.6 14.8 78 -12.7 9.1
06:20 1017 30.03 846 24.98 -9.5 14.8 79 -12.6 9.3
06:25 1017 30.03 846 24.98 -9.8 14.4 79 -12.8 9
06:30 1017 30.03 846 24.98 -10 14 80 -12.9 8.7
06:35 1017 30.03 846 24.98 -10 14 79 -12.9 8.7
06:40 1017 30.03 846 24.98 -10.1 13.9 80 -12.9 8.9
06:45 1017 30.03 846 24.98 -9.8 14.4 80 -12.7 9.2
06:50 1017 30.03 846 24.98 -9.6 14.8 79 -12.6 9.3
06:55 1017 30.03 846 24.98 -9.3 15.2 78 -12.5 9.6
07:00 1017 30.03 846 24.98 -8.9 16 76 -12.4 9.7
07:05 1017 30.03 846 24.98 -8.8 16.1 75 -12.4 9.6
07:10 1017 30.03 846 24.98 -8.9 16 76 -12.4 9.7
07:15 1016 30 846 24.98 -8.9 16 77 -12.3 9.8
07:20 1016 30 846 24.98 -8.7 16.3 76 -12.2 10.1
07:25 1016 30 846 24.98 -8.5 16.7 76 -12 10.3
07:30 1016 30 846 24.98 -8.5 16.8 76 -11.9 10.6
07:35 1016 30 846 24.98 -8.7 16.4 77 -12.1 10.2
07:40 1016 30 846 24.98 -8.9 16.1 77 -12.2 10
07:45 1016 30 846 24.98 -8.9 15.9 78 -12.1 10.2
07:50 1016 30 845 24.95 -9 15.7 78 -12.2 10.1
07:55 1016 30 845 24.95 -9.1 15.7 78 -12.2 10.1
08:00 1016 30 845 24.95 -9.1 15.6 79 -12.2 10
08:05 1016 30 845 24.95 -9.2 15.5 79 -12.2 10
08:10 1016 30 845 24.95 -9.2 15.5 79 -12.1 10.2
08:15 1016 30 845 24.95 -9.1 15.7 79 -12 10.4
08:20 1016 30 845 24.95 -9.1 15.6 79 -12.1 10.2
08:25 1016 30 845 24.95 -9.1 15.7 79 -12 10.4
08:30 1016 30 845 24.95 -9 15.8 80 -11.9 10.6
08:35 1016 30 845 24.95 -8.7 16.4 78 -11.9 10.6
08:40 1016 30 845 24.95 -8.3 17 76 -11.8 10.8
08:45 1016 30 845 24.95 -8.1 17.5 75 -11.7 10.9
08:50 1016 30 845 24.95 -7.8 18.1 74 -11.7 11
08:55 1016 30 845 24.95 -7.7 18.1 74 -11.6 11.1
09:00 1016 30 846 24.98 -7.8 18 73 -11.8 10.8
09:05 1017 30.03 846 24.98 -7.7 18.2 72 -11.9 10.5
09:10 1017 30.03 846 24.98 -7.5 18.6 71 -11.9 10.6
09:15 1017 30.03 846 24.98 -7.2 19 70 -11.8 10.7
09:20 1017 30.03 846 24.98 -7.2 19 72 -11.5 11.4
09:25 1017 30.03 846 24.98 -7.4 18.8 70 -12 10.5
09:30 1017 30.03 846 24.98 -7.3 18.9 69 -12 10.4
09:35 1017 30.03 846 24.98 -7 19.4 67 -12.2 10.1
09:40 1017 30.03 846 24.98 -7.1 19.3 68 -12.1 10.2
09:45 1017 30.03 846 24.98 -7.3 18.8 68 -12.3 9.9
09:50 1017 30.03 846 24.98 -7.1 19.2 68 -12.1 10.2
09:55 1016 30 846 24.98 -7.1 19.1 67 -12.2 10
10:00 1016 30 846 24.98 -7.1 19.3 68 -12.1 10.3
10:05 1017 30.03 846 24.98 -6.8 19.8 66 -12.2 10.1
10:10 1017 30.03 846 24.98 -6.5 20.3 65 -12.1 10.3
10:15 1017 30.03 846 24.98 -6.3 20.7 65 -11.9 10.6
10:20 1016 30 846 24.98 -6.2 20.9 64 -11.9 10.6
10:25 1016 30 846 24.98 -5.6 21.8 61 -11.9 10.5
10:30 1016 30 846 24.98 -5.3 22.4 61 -11.8 10.8
10:35 1016 30 846 24.98 -5.2 22.7 61 -11.6 11.1
10:40 1017 30.03 846 24.98 -5 23 61 -11.5 11.3
10:45 1016 30 846 24.98 -5.4 22.3 61 -11.7 10.9
10:50 1017 30.03 846 24.98 -5.7 21.8 62 -11.8 10.8
10:55 1017 30.03 846 24.98 -5.9 21.4 63 -11.8 10.7
11:00 1016 30 846 24.98 -5.5 22.1 61 -11.8 10.7
11:05 1016 30 846 24.98 -5.1 22.9 60 -11.7 11
11:10 1016 30 846 24.98 -4.8 23.3 59 -11.7 11
11:15 1017 30.03 846 24.98 -4.4 24 57 -11.7 10.9
11:20 1017 30.03 846 24.98 -4.1 24.6 57 -11.5 11.3
11:25 1017 30.03 846 24.98 -4.2 24.4 56 -11.7 10.9
11:30 1016 30 846 24.98 -4.4 24 57 -11.8 10.8
11:35 1016 30 846 24.98 -4.3 24.2 57 -11.7 10.9
11:40 1016 30 846 24.98 -4.5 23.9 58 -11.5 11.2
11:45 1016 30 845 24.95 -4.8 23.4 60 -11.5 11.3
11:50 1016 30 845 24.95 -5.1 22.8 60 -11.7 11
11:55 1016 30 845 24.95 -4.9 23.2 59 -11.8 10.8
12:00 1016 30 845 24.95 -5.3 22.5 62 -11.4 11.4
12:05 1016 30 845 24.95 -5.3 22.4 61 -11.6 11.1
12:10 1016 30 845 24.95 -5.8 21.5 63 -11.8 10.7
12:15 1016 30 845 24.95 -5.9 21.4 63 -12 10.5
12:20 1016 30 845 24.95 -6 21.2 63 -12 10.4
12:25 1016 30 845 24.95 -5.3 22.4 60 -11.9 10.5
12:30 1016 30 845 24.95 -5.7 21.7 62 -11.9 10.6
12:35 1016 30 845 24.95 -5.2 22.7 60 -11.8 10.7
12:40 1016 30 845 24.95 -4.6 23.7 57 -12 10.4
12:45 1016 30 845 24.95 -4 24.9 55 -11.8 10.8
12:50 1015 29.97 845 24.95 -3.6 25.4 55 -11.5 11.3
12:55 1015 29.97 845 24.95 -3.4 25.9 53 -11.7 10.9
13:00 1015 29.97 845 24.95 -3.3 26.1 54 -11.3 11.6
13:05 1015 29.97 845 24.95 -3.6 25.6 54 -11.6 11.2
13:10 1015 29.97 844 24.92 -3.3 26 54 -11.4 11.6
13:15 1015 29.97 844 24.92 -2.8 27 53 -11.1 12
13:20 1015 29.97 844 24.92 -2.6 27.4 51 -11.3 11.7
13:25 1015 29.97 844 24.92 -2.2 28 51 -11 12.3
13:30 1015 29.97 844 24.92 -2.2 28 52 -10.7 12.7
13:35 1015 29.97 844 24.92 -2.4 27.6 52 -10.9 12.4
13:40 1015 29.97 844 24.92 -2.6 27.3 53 -11 12.3
13:45 1015 29.97 844 24.92 -3.1 26.5 55 -10.8 12.5
13:50 1015 29.97 844 24.92 -4 24.8 58 -11.2 11.9
13:55 1015 29.97 844 24.92 -3.9 25 56 -11.5 11.3
14:00 1015 29.97 844 24.92 -3.4 25.9 55 -11.1 12
14:05 1015 29.97 844 24.92 -3.1 26.4 55 -11 12.3
14:10 1015 29.97 844 24.92 -3.3 26.1 55 -11.1 11.9
14:15 1015 29.97 844 24.92 -3.5 25.7 57 -10.9 12.4
14:20 1015 29.97 844 24.92 -3.8 25.2 57 -11.1 12.1
14:25 1015 29.97 844 24.92 -3.6 25.4 57 -11 12.1
14:30 1015 29.97 844 24.92 -3.4 25.9 56 -11.1 12.1
14:35 1015 29.97 844 24.92 -3.5 25.7 57 -10.8 12.5
14:40 1015 29.97 844 24.92 -4.2 24.4 58 -11.3 11.7
14:45 1014 29.94 844 24.92 -3.9 25 58 -11 12.2
14:50 1015 29.97 844 24.92 -4.6 23.7 60 -11.2 11.8
14:55 1014 29.94 844 24.92 -4.6 23.8 60 -11.3 11.7
15:00 1014 29.94 844 24.92 -4.3 24.3 59 -11.2 11.9
15:05 1014 29.94 844 24.92 -4 24.8 58 -11 12.2
15:10 1014 29.94 844 24.92 -4.2 24.4 59 -11.1 11.9
15:15 1014 29.94 843 24.89 -4.2 24.5 59 -11 12.2
15:20 1014 29.94 843 24.89 -4 24.8 58 -11.1 11.9
15:25 1014 29.94 843 24.89 -4 24.8 58 -11.2 11.9
15:30 1014 29.94 843 24.89 -3.9 24.9 58 -11 12.3
15:35 1014 29.94 843 24.89 -3.9 25 59 -10.8 12.5
15:40 1014 29.94 843 24.89 -4.1 24.7 60 -10.7 12.7
15:45 1014 29.94 843 24.89 -4.1 24.6 60 -10.7 12.7
15:50 1014 29.94 843 24.89 -4.2 24.5 62 -10.5 13.2
15:55 1014 29.94 843 24.89 -4 24.8 62 -10.3 13.4
16:00 1014 29.94 843 24.89 -4.1 24.7 62 -10.4 13.3
16:05 1014 29.94 843 24.89 -4 24.7 62 -10.2 13.7
16:10 1014 29.94 843 24.89 -4.2 24.5 63 -10.3 13.5
16:15 1014 29.94 843 24.89 -4.3 24.3 64 -10.2 13.7
16:20 1014 29.94 843 24.89 -4.6 23.8 65 -10.1 13.8
16:25 1014 29.94 843 24.89 -4.8 23.3 66 -10.2 13.6
16:30 1014 29.94 843 24.89 -4.8 23.4 66 -10.3 13.5
16:35 1014 29.94 843 24.89 -5.3 22.4 68 -10.4 13.4
16:40 1014 29.94 843 24.89 -5.8 21.5 69 -10.6 12.9
16:45 1014 29.94 843 24.89 -6.1 21.1 70 -10.6 12.9
16:50 1014 29.94 843 24.89 -6.2 20.9 71 -10.6 13
16:55 1014 29.94 843 24.89 -6.2 20.8 71 -10.7 12.8
17:00 1014 29.94 843 24.89 -6.5 20.4 72 -10.7 12.8
17:05 1014 29.94 843 24.89 -6.5 20.3 73 -10.6 13
17:10 1014 29.94 843 24.89 -6.4 20.4 72 -10.6 12.8
17:15 1014 29.94 843 24.89 -6.4 20.4 72 -10.6 12.9
17:20 1014 29.94 843 24.89 -6.5 20.3 73 -10.6 12.9
17:25 1014 29.94 843 24.89 -6.4 20.4 72 -10.7 12.8
17:30 1014 29.94 843 24.89 -6.4 20.5 72 -10.7 12.7
17:35 1014 29.94 843 24.89 -6.2 20.9 70 -10.7 12.7
17:40 1014 29.94 843 24.89 -6.4 20.6 72 -10.6 12.9
17:45 1014 29.94 843 24.89 -6.6 20.1 73 -10.7 12.8
17:50 1013 29.91 843 24.89 -6.7 19.9 73 -10.8 12.5
17:55 1013 29.91 843 24.89 -7 19.4 73 -11.1 12
18:00 1013 29.91 843 24.89 -7.1 19.2 74 -11 12.3
18:05 1013 29.91 843 24.89 -7 19.3 74 -11 12.2
18:10 1013 29.91 843 24.89 -7.1 19.3 75 -10.8 12.6
18:15 1013 29.91 843 24.89 -7.1 19.3 75 -10.8 12.6
18:20 1014 29.94 843 24.89 -6.9 19.5 74 -10.9 12.5
18:25 1014 29.94 843 24.89 -6.9 19.5 73 -11 12.2
18:30 1014 29.94 843 24.89 -7 19.4 73 -11.1 12.1
18:35 1014 29.94 843 24.89 -7 19.3 72 -11.2 11.9
18:40 1014 29.94 843 24.89 -7.1 19.2 73 -11.2 11.9
18:45 1014 29.94 843 24.89 -7.2 19.1 72 -11.3 11.6
18:50 1014 29.94 843 24.89 -7.4 18.8 73 -11.4 11.6
18:55 1014 29.94 843 24.89 -7.4 18.7 73 -11.4 11.5
19:00 1014 29.94 843 24.89 -7.3 18.8 73 -11.3 11.6
19:05 1014 29.94 843 24.89 -7.5 18.6 73 -11.5 11.4
19:10 1014 29.94 843 24.89 -7.5 18.5 74 -11.4 11.4
19:15 1014 29.94 843 24.89 -7.7 18.2 76 -11.3 11.7
19:20 1014 29.94 843 24.89 -7.6 18.4 75 -11.2 11.8
19:25 1014 29.94 843 24.89 -7.7 18.2 77 -11.1 12
19:30 1014 29.94 843 24.89 -7.6 18.3 76 -11.2 11.9
19:35 1014 29.94 843 24.89 -7.6 18.4 77 -11 12.3
19:40 1014 29.94 843 24.89 -7.3 18.9 75 -11 12.3
19:45 1014 29.94 843 24.89 -7.3 18.9 76 -10.9 12.5
19:50 1014 29.94 843 24.89 -7.3 18.9 75 -10.9 12.4
19:55 1014 29.94 843 24.89 -7.2 19.1 76 -10.8 12.6
20:00 1014 29.94 843 24.89 -7.3 18.9 76 -10.8 12.5
20:05 1014 29.94 843 24.89 -7.4 18.7 77 -10.8 12.6
20:10 1014 29.94 843 24.89 -7.4 18.7 77 -10.7 12.7
20:15 1014 29.94 843 24.89 -7.2 19.1 76 -10.7 12.8
20:20 1014 29.94 843 24.89 -7.2 19 77 -10.6 12.9
20:25 1014 29.94 843 24.89 -7.2 19.1 77 -10.6 13
20:30 1014 29.94 843 24.89 -7.2 19.1 77 -10.5 13
20:35 1014 29.94 843 24.89 -7.1 19.2 76 -10.6 12.9
20:40 1014 29.94 843 24.89 -7 19.5 74 -10.9 12.4
20:45 1014 29.94 843 24.89 -6.6 20.1 73 -10.7 12.8
20:50 1014 29.94 843 24.89 -6.4 20.5 73 -10.5 13.1
20:55 1014 29.94 843 24.89 -6.3 20.7 73 -10.3 13.5
21:00 1014 29.94 843 24.89 -6.3 20.7 72 -10.6 12.9
21:05 1014 29.94 843 24.89 -6.2 20.9 72 -10.5 13.2
21:10 1014 29.94 843 24.89 -6.1 21.1 72 -10.4 13.3
21:15 1014 29.94 843 24.89 -6 21.2 72 -10.3 13.5
21:20 1014 29.94 843 24.89 -5.9 21.4 71 -10.4 13.3
21:25 1014 29.94 843 24.89 -5.6 21.9 72 -9.9 14.1
21:30 1014 29.94 843 24.89 -5.4 22.3 71 -9.8 14.4
21:35 1014 29.94 843 24.89 -5.3 22.5 72 -9.6 14.8
21:40 1014 29.94 843 24.89 -5.2 22.7 71 -9.6 14.8
21:45 1014 29.94 843 24.89 -5 22.9 72 -9.4 15.1
21:50 1014 29.94 843 24.89 -5.1 22.8 72 -9.3 15.2
21:55 1014 29.94 843 24.89 -5.2 22.6 75 -9 15.8
22:00 1014 29.94 843 24.89 -5.2 22.6 77 -8.7 16.3
22:05 1014 29.94 843 24.89 -5.2 22.6 78 -8.4 16.8
22:10 1014 29.94 844 24.92 -5.3 22.4 79 -8.4 16.8
22:15 1014 29.94 844 24.92 -5.6 22 82 -8.2 17.2
22:20 1014 29.94 844 24.92 -5.8 21.6 84 -8.1 17.4
22:25 1014 29.94 844 24.92 -5.9 21.3 86 -7.9 17.7
22:30 1014 29.94 844 24.92 -6 21.2 86 -7.9 17.7
22:35 1014 29.94 844 24.92 -6.2 20.8 87 -8 17.6
22:40 1014 29.94 844 24.92 -6.4 20.5 89 -7.9 17.8
22:45 1014 29.94 844 24.92 -6.5 20.4 90 -7.8 17.9
22:50 1015 29.97 844 24.92 -6.5 20.3 90 -7.9 17.8
22:55 1015 29.97 844 24.92 -6.5 20.3 90 -7.8 17.9
23:00 1014 29.94 844 24.92 -6.5 20.3 90 -7.8 17.9
23:05 1014 29.94 844 24.92 -6.5 20.3 91 -7.8 18
23:10 1014 29.94 844 24.92 -6.4 20.5 91 -7.6 18.3
23:15 1014 29.94 844 24.92 -6.3 20.7 91 -7.6 18.3
23:20 1014 29.94 844 24.92 -6.3 20.6 91 -7.6 18.3
23:25 1014 29.94 844 24.92 -6.5 20.4 91 -7.7 18.2
23:30 1014 29.94 844 24.92 -6.4 20.4 92 -7.6 18.4
23:35 1014 29.94 844 24.92 -6.4 20.4 93 -7.4 18.6
23:40 1014 29.94 844 24.92 -6.5 20.4 93 -7.4 18.7
23:45 1014 29.94 844 24.92 -6.5 20.4 93 -7.4 18.7
23:50 1014 29.94 844 24.92 -6.3 20.6 93 -7.2 19
23:55 1014 29.94 844 24.92 -6.3 20.7 94 -7.1 19.2
24:00 1014 29.94 844 24.92 -6.2 20.9 94 -7 19.4